createdAt,value
2022-11-28T00:02:04.437Z,11.23
2022-11-28T00:04:30.898Z,9.90
2022-11-28T00:06:57.365Z,9.65
2022-11-28T00:09:24.077Z,10.27
2022-11-28T00:11:50.653Z,11.80
2022-11-28T00:14:17.508Z,11.82
2022-11-28T00:16:43.931Z,10.40
2022-11-28T00:19:10.822Z,12.40
2022-11-28T00:21:37.217Z,11.63
2022-11-28T00:24:03.973Z,8.77
2022-11-28T00:26:32.048Z,12.15
2022-11-28T00:28:58.591Z,13.50
2022-11-28T00:31:27.055Z,13.27
2022-11-28T00:33:53.620Z,8.63
2022-11-28T00:36:22.196Z,8.40
2022-11-28T00:38:48.872Z,9.35
2022-11-28T00:41:33.565Z,10.43
2022-11-28T00:44:00.002Z,9.20
2022-11-28T00:46:26.501Z,14.27
2022-11-28T00:48:52.941Z,10.65
2022-11-28T00:51:21.321Z,9.30
2022-11-28T00:53:48.399Z,11.98
2022-11-28T00:56:16.883Z,9.25
2022-11-28T00:58:44.682Z,10.70
2022-11-28T01:01:18.641Z,10.63
2022-11-28T01:03:45.687Z,12.02
2022-11-28T01:06:12.314Z,12.27
2022-11-28T01:08:38.752Z,10.13
2022-11-28T01:11:11.202Z,10.35
2022-11-28T01:13:37.593Z,10.57
2022-11-28T01:16:04.092Z,12.45
2022-11-28T01:18:30.485Z,8.15
2022-11-28T01:20:56.899Z,10.77
2022-11-28T01:23:23.328Z,7.63
2022-11-28T01:25:49.764Z,7.28
2022-11-28T01:28:16.135Z,11.95
2022-11-28T01:30:42.533Z,12.52
2022-11-28T01:33:08.913Z,10.18
2022-11-28T01:35:35.339Z,8.30
2022-11-28T01:38:01.750Z,10.32
2022-11-28T01:40:28.173Z,8.38
2022-11-28T01:42:54.554Z,9.55
2022-11-28T01:45:21.803Z,8.32
2022-11-28T01:47:48.210Z,9.55
2022-11-28T01:50:14.734Z,9.40
2022-11-28T01:52:42.802Z,8.75
2022-11-28T01:55:09.286Z,10.93
2022-11-28T01:57:35.693Z,11.50
2022-11-28T02:00:08.550Z,9.43
2022-11-28T02:02:44.213Z,8.80
2022-11-28T02:05:10.630Z,7.68
2022-11-28T02:07:37.132Z,7.05
2022-11-28T02:10:05.032Z,8.13
2022-11-28T02:12:50.112Z,10.65
2022-11-28T02:15:44.139Z,8.20
2022-11-28T02:18:22.830Z,9.98
2022-11-28T02:21:11.986Z,8.85
2022-11-28T02:24:02.805Z,9.00
2022-11-28T02:27:08.377Z,8.95
2022-11-28T02:29:59.445Z,10.07
2022-11-28T02:32:35.530Z,7.93
2022-11-28T02:35:08.731Z,7.50
2022-11-28T02:37:41.904Z,7.70
2022-11-28T02:40:23.433Z,7.90
2022-11-28T02:43:11.621Z,8.32
2022-11-28T02:46:01.861Z,8.13
2022-11-28T02:48:34.148Z,6.35
2022-11-28T02:51:13.237Z,10.57
2022-11-28T02:53:39.669Z,6.82
2022-11-28T02:56:06.134Z,6.78
2022-11-28T02:58:32.557Z,7.82
2022-11-28T03:00:59.010Z,7.38
2022-11-28T03:03:25.344Z,9.10
2022-11-28T03:06:13.956Z,7.95
2022-11-28T03:09:01.796Z,8.73
2022-11-28T03:11:40.368Z,7.45
2022-11-28T03:14:31.401Z,9.80
2022-11-28T03:17:31.270Z,9.13
2022-11-28T03:20:17.881Z,6.10
2022-11-28T03:23:10.783Z,7.13
2022-11-28T03:25:37.073Z,6.50
2022-11-28T03:28:20.015Z,6.50
2022-11-28T03:30:51.048Z,7.38
2022-11-28T03:33:17.475Z,8.25
2022-11-28T03:35:47.818Z,7.63
2022-11-28T03:38:18.759Z,6.85
2022-11-28T03:40:46.773Z,8.43
2022-11-28T03:43:19.361Z,9.70
2022-11-28T03:45:48.044Z,10.77
2022-11-28T03:48:23.794Z,6.25
2022-11-28T03:51:10.654Z,9.35
2022-11-28T03:53:53.538Z,6.60
2022-11-28T03:56:25.525Z,6.95
2022-11-28T03:59:13.425Z,7.50
2022-11-28T04:01:53.909Z,8.70
2022-11-28T04:04:38.436Z,8.95
2022-11-28T04:07:26.726Z,6.05
2022-11-28T04:10:20.708Z,9.40
2022-11-28T04:13:09.171Z,7.82
2022-11-28T04:15:47.634Z,6.63
2022-11-28T04:18:26.038Z,8.38
2022-11-28T04:21:12.488Z,7.90
2022-11-28T04:23:39.642Z,8.32
2022-11-28T04:26:13.503Z,6.55
2022-11-28T04:28:39.923Z,10.13
2022-11-28T04:31:06.442Z,9.15
2022-11-28T04:33:34.862Z,8.38
2022-11-28T04:36:01.251Z,7.10
2022-11-28T04:38:28.188Z,9.82
2022-11-28T04:41:00.382Z,9.13
2022-11-28T04:43:29.918Z,7.85
2022-11-28T04:46:02.452Z,8.73
2022-11-28T04:48:34.095Z,7.13
2022-11-28T04:51:32.871Z,8.07
2022-11-28T04:54:19.425Z,7.70
2022-11-28T04:56:51.374Z,9.18
2022-11-28T04:59:17.802Z,8.23
2022-11-28T05:01:44.296Z,7.93
2022-11-28T05:04:10.793Z,7.70
2022-11-28T05:06:37.202Z,8.15
2022-11-28T05:09:03.914Z,6.95
2022-11-28T05:11:30.501Z,9.27
2022-11-28T05:13:56.893Z,7.18
2022-11-28T05:16:23.525Z,7.93
2022-11-28T05:18:50.003Z,8.43
2022-11-28T05:21:16.445Z,8.32
2022-11-28T05:23:43.725Z,7.72
2022-11-28T05:26:12.102Z,7.40
2022-11-28T05:28:38.629Z,6.97
2022-11-28T05:31:05.232Z,7.32
2022-11-28T05:33:32.065Z,8.73
2022-11-28T05:36:09.935Z,6.40
2022-11-28T05:38:39.222Z,8.45
2022-11-28T05:41:05.746Z,15.68
2022-11-28T05:43:32.147Z,6.07
2022-11-28T05:45:58.668Z,8.30
2022-11-28T05:48:25.122Z,7.03
2022-11-28T05:50:51.636Z,9.32
2022-11-28T05:53:18.511Z,9.02
2022-11-28T05:55:44.935Z,10.82
2022-11-28T05:58:11.390Z,9.40
2022-11-28T06:00:37.821Z,7.07
2022-11-28T06:03:04.455Z,6.60
2022-11-28T06:05:44.428Z,8.50
2022-11-28T06:08:13.976Z,7.18
2022-11-28T06:10:40.649Z,9.05
2022-11-28T06:13:07.137Z,7.65
2022-11-28T06:15:37.584Z,8.57
2022-11-28T06:18:05.007Z,7.07
2022-11-28T06:20:31.466Z,10.20
2022-11-28T06:22:57.855Z,8.77
2022-11-28T06:25:24.287Z,6.68
2022-11-28T06:27:50.695Z,8.18
2022-11-28T06:30:17.304Z,7.10
2022-11-28T06:32:43.697Z,8.73
2022-11-28T06:35:10.375Z,7.03
2022-11-28T06:37:36.789Z,8.65
2022-11-28T06:40:03.863Z,10.90
2022-11-28T06:42:30.254Z,7.45
2022-11-28T06:44:56.704Z,8.05
2022-11-28T06:47:23.110Z,8.07
2022-11-28T06:49:49.525Z,7.80
2022-11-28T06:52:15.918Z,8.40
2022-11-28T06:54:42.442Z,7.93
2022-11-28T06:57:08.904Z,8.63
2022-11-28T06:59:35.431Z,7.93
2022-11-28T07:02:07.281Z,8.98
2022-11-28T07:04:34.284Z,9.05
2022-11-28T07:07:00.712Z,8.30
2022-11-28T07:09:27.110Z,9.38
2022-11-28T07:11:53.532Z,8.20
2022-11-28T07:14:19.939Z,7.68
2022-11-28T07:16:46.433Z,8.98
2022-11-28T07:19:12.890Z,7.55
2022-11-28T07:21:39.312Z,8.65
2022-11-28T07:24:06.033Z,10.90
2022-11-28T07:26:34.759Z,9.05
2022-11-28T07:29:01.417Z,10.32
2022-11-28T07:31:27.932Z,7.75
2022-11-28T07:33:54.377Z,8.15
2022-11-28T07:36:22.696Z,11.00
2022-11-28T07:38:50.213Z,11.77
2022-11-28T07:41:16.604Z,10.27
2022-11-28T07:43:43.941Z,9.95
2022-11-28T07:46:12.304Z,9.13
2022-11-28T07:48:39.284Z,10.02
2022-11-28T07:51:06.819Z,8.90
2022-11-28T07:53:33.241Z,8.48
2022-11-28T07:56:03.584Z,7.75
2022-11-28T07:58:30.063Z,8.93
2022-11-28T08:00:56.434Z,11.10
2022-11-28T08:03:22.900Z,10.70
2022-11-28T08:05:49.332Z,11.02
2022-11-28T08:08:16.792Z,10.15
2022-11-28T08:10:43.618Z,11.57
2022-11-28T08:13:10.669Z,17.90
2022-11-28T08:15:40.151Z,11.20
2022-11-28T08:18:07.088Z,11.10
2022-11-28T08:20:33.509Z,9.32
2022-11-28T08:22:59.917Z,11.00
2022-11-28T08:25:26.355Z,10.55
2022-11-28T08:27:52.764Z,9.52
2022-11-28T08:30:19.174Z,8.52
2022-11-28T08:32:45.567Z,11.18
2022-11-28T08:35:11.974Z,10.98
2022-11-28T08:37:38.356Z,10.30
2022-11-28T08:40:05.530Z,11.55
2022-11-28T08:42:31.948Z,11.45
2022-11-28T08:44:58.362Z,8.68
2022-11-28T08:47:24.819Z,9.05
2022-11-28T08:49:51.214Z,10.45
2022-11-28T08:52:17.633Z,8.77
2022-11-28T08:54:44.412Z,11.88
2022-11-28T08:57:10.899Z,11.30
2022-11-28T08:59:37.353Z,11.27
2022-11-28T09:02:03.768Z,9.88
2022-11-28T09:04:30.217Z,8.65
2022-11-28T09:06:56.599Z,13.48
2022-11-28T09:09:23.107Z,10.18
2022-11-28T09:11:49.524Z,12.18
2022-11-28T09:14:15.951Z,13.80
2022-11-28T09:16:42.444Z,11.50
2022-11-28T09:19:08.914Z,10.55
2022-11-28T09:21:35.363Z,10.77
2022-11-28T09:24:01.751Z,12.32
2022-11-28T09:26:28.242Z,12.55
2022-11-28T09:28:54.674Z,14.27
2022-11-28T09:31:21.227Z,13.10
2022-11-28T09:33:47.839Z,14.20
2022-11-28T09:36:16.847Z,13.10
2022-11-28T09:38:45.677Z,10.85
2022-11-28T09:41:43.501Z,9.95
2022-11-28T09:44:31.612Z,11.40
2022-11-28T09:46:59.411Z,13.45
2022-11-28T09:49:32.113Z,11.35
2022-11-28T09:52:29.805Z,14.50
2022-11-28T09:54:58.531Z,12.75
2022-11-28T09:57:40.163Z,13.82
2022-11-28T10:00:11.104Z,12.38
2022-11-28T10:02:50.285Z,10.63
2022-11-28T10:05:52.160Z,11.60
2022-11-28T10:08:28.512Z,12.90
2022-11-28T10:11:00.808Z,9.43
2022-11-28T10:14:07.342Z,11.43
2022-11-28T10:17:00.585Z,12.35
2022-11-28T10:19:57.435Z,11.93
2022-11-28T10:22:35.135Z,10.07
2022-11-28T10:25:08.634Z,11.52
2022-11-28T10:27:35.222Z,12.93
2022-11-28T10:30:08.916Z,13.55
2022-11-28T10:32:37.803Z,13.68
2022-11-28T10:35:13.169Z,11.50
2022-11-28T10:37:39.579Z,10.65
2022-11-28T10:40:17.971Z,10.48
2022-11-28T10:42:58.586Z,11.55
2022-11-28T10:45:27.139Z,10.55
2022-11-28T10:48:37.304Z,11.35
2022-11-28T10:51:07.019Z,13.23
2022-11-28T10:53:45.472Z,11.93
2022-11-28T10:56:33.553Z,15.25
2022-11-28T10:59:15.099Z,11.40
2022-11-28T11:01:43.786Z,10.65
2022-11-28T11:04:23.692Z,11.90
2022-11-28T11:07:20.234Z,9.43
2022-11-28T11:09:49.339Z,11.63
2022-11-28T11:12:21.119Z,14.00
2022-11-28T11:14:47.533Z,14.02
2022-11-28T11:17:36.202Z,12.65
2022-11-28T11:20:27.224Z,11.95
2022-11-28T11:22:58.146Z,12.00
2022-11-28T11:25:25.426Z,12.77
2022-11-28T11:27:56.284Z,11.15
2022-11-28T11:30:36.505Z,14.85
2022-11-28T11:33:04.580Z,12.00
2022-11-28T11:35:34.402Z,11.65
2022-11-28T11:38:17.478Z,15.32
2022-11-28T11:40:43.929Z,11.23
2022-11-28T11:43:29.985Z,12.57
2022-11-28T11:46:09.600Z,11.73
2022-11-28T11:48:43.705Z,12.23
2022-11-28T11:51:32.766Z,15.07
2022-11-28T11:54:15.148Z,11.93
2022-11-28T11:56:43.641Z,13.30
2022-11-28T11:59:23.412Z,16.65
2022-11-28T12:01:51.772Z,14.02
2022-11-28T12:04:51.089Z,13.82
2022-11-28T12:07:25.782Z,12.77
2022-11-28T12:09:54.475Z,14.43
2022-11-28T12:12:25.397Z,13.10
2022-11-28T12:14:51.827Z,10.10
2022-11-28T12:17:58.846Z,12.48
2022-11-28T12:20:47.750Z,13.98
2022-11-28T12:23:32.467Z,11.63
2022-11-28T12:26:06.311Z,11.20
2022-11-28T12:28:32.604Z,12.63
2022-11-28T12:31:11.644Z,16.30
2022-11-28T12:33:44.457Z,11.93
2022-11-28T12:36:19.695Z,11.02
2022-11-28T12:39:16.585Z,12.68
2022-11-28T12:42:01.549Z,11.65
2022-11-28T12:44:52.926Z,12.02
2022-11-28T12:47:19.222Z,13.50
2022-11-28T12:50:15.081Z,12.43
2022-11-28T12:52:44.574Z,9.93
2022-11-28T12:55:16.828Z,15.60
2022-11-28T12:57:54.761Z,13.55
2022-11-28T13:00:23.214Z,11.85
2022-11-28T13:03:13.727Z,10.77
2022-11-28T13:05:55.327Z,14.40
2022-11-28T13:08:50.162Z,12.00
2022-11-28T13:11:56.134Z,11.45
2022-11-28T13:14:47.575Z,14.50
2022-11-28T13:17:33.005Z,12.07
2022-11-28T13:20:19.239Z,13.18
2022-11-28T13:22:52.050Z,13.68
2022-11-28T13:25:27.132Z,11.35
2022-11-28T13:28:31.330Z,11.05
2022-11-28T13:31:22.558Z,15.80
2022-11-28T13:33:53.377Z,12.73
2022-11-28T13:39:16.725Z,13.85
2022-11-28T13:44:57.786Z,13.25
2022-11-28T13:47:25.983Z,14.23
2022-11-28T13:50:21.406Z,9.23
2022-11-28T13:52:57.661Z,11.80
2022-11-28T13:55:43.584Z,12.57
2022-11-28T13:58:15.746Z,13.93
2022-11-28T14:00:42.228Z,15.40
2022-11-28T14:03:18.394Z,11.65
2022-11-28T14:05:44.987Z,13.57
2022-11-28T14:08:33.022Z,14.10
2022-11-28T14:11:28.190Z,11.80
2022-11-28T14:13:57.585Z,12.27
2022-11-28T14:17:12.126Z,10.15
2022-11-28T14:19:50.395Z,13.23
2022-11-28T14:22:43.007Z,13.13
2022-11-28T14:25:41.897Z,11.60
2022-11-28T14:28:23.705Z,9.20
2022-11-28T14:30:50.195Z,10.93
2022-11-28T14:33:38.294Z,13.82
2022-11-28T14:36:26.574Z,11.27
2022-11-28T14:39:03.876Z,15.77
2022-11-28T14:41:30.378Z,11.80
2022-11-28T14:44:39.592Z,12.52
2022-11-28T14:47:13.658Z,11.32
2022-11-28T14:49:40.336Z,9.63
2022-11-28T14:52:30.709Z,15.07
2022-11-28T14:54:54.321Z,10.45
2022-11-28T14:57:28.974Z,11.65
2022-11-28T14:59:55.616Z,11.45
2022-11-28T15:02:49.321Z,11.95
2022-11-28T15:05:33.970Z,11.70
2022-11-28T15:08:17.057Z,12.23
2022-11-28T15:11:06.164Z,12.50
2022-11-28T15:13:58.744Z,11.77
2022-11-28T15:16:25.220Z,12.35
2022-11-28T15:18:53.511Z,10.93
2022-11-28T15:21:20.265Z,12.75
2022-11-28T15:23:46.735Z,13.93
2022-11-28T15:26:30.368Z,14.68
2022-11-28T15:29:09.008Z,15.45
2022-11-28T15:31:35.610Z,11.00
2022-11-28T15:34:02.123Z,14.45
2022-11-28T15:36:28.849Z,11.98
2022-11-28T15:38:55.521Z,15.02
2022-11-28T15:41:23.234Z,11.18
2022-11-28T15:43:49.882Z,10.57
2022-11-28T15:46:20.790Z,11.75
2022-11-28T15:48:53.480Z,13.40
2022-11-28T15:51:37.793Z,12.15
2022-11-28T15:54:31.549Z,11.57
2022-11-28T15:57:01.049Z,12.10
2022-11-28T15:59:27.997Z,12.90
2022-11-28T16:01:59.234Z,9.45
2022-11-28T16:04:26.063Z,12.10
2022-11-28T16:06:53.273Z,11.80
2022-11-28T16:09:19.567Z,12.93
2022-11-28T16:11:48.453Z,10.88
2022-11-28T16:14:25.673Z,12.43
2022-11-28T16:16:52.088Z,14.45
2022-11-28T16:19:25.575Z,12.45
2022-11-28T16:21:56.976Z,12.38
2022-11-28T16:24:38.150Z,12.60
2022-11-28T16:27:05.380Z,15.18
2022-11-28T16:29:35.030Z,15.07
2022-11-28T16:32:31.463Z,11.52
2022-11-28T16:34:57.874Z,14.77
2022-11-28T16:37:25.976Z,11.77
2022-11-28T16:40:14.371Z,13.05
2022-11-28T16:42:40.841Z,16.42
2022-11-28T16:45:15.480Z,13.98
2022-11-28T16:47:41.905Z,14.20
2022-11-28T16:50:17.343Z,15.50
2022-11-28T16:52:45.430Z,12.77
2022-11-28T16:55:26.883Z,14.88
2022-11-28T16:57:59.191Z,15.90
2022-11-28T17:00:25.589Z,13.93
2022-11-28T17:02:52.158Z,14.93
2022-11-28T17:05:18.898Z,13.98
2022-11-28T17:07:45.941Z,14.18
2022-11-28T17:10:12.817Z,16.67
2022-11-28T17:12:39.387Z,15.98
2022-11-28T17:15:16.651Z,16.67
2022-11-28T17:17:43.172Z,15.90
2022-11-28T17:20:11.326Z,14.57
2022-11-28T17:22:41.250Z,14.10
2022-11-28T17:25:09.801Z,15.68
2022-11-28T17:27:36.181Z,16.65
2022-11-28T17:30:02.632Z,18.98
2022-11-28T17:32:29.039Z,15.15
2022-11-28T17:34:55.431Z,17.20
2022-11-28T17:37:21.885Z,15.85
2022-11-28T17:39:48.421Z,15.23
2022-11-28T17:42:14.847Z,15.82
2022-11-28T17:44:41.609Z,13.25
2022-11-28T17:47:08.341Z,14.85
2022-11-28T17:49:34.743Z,13.25
2022-11-28T17:52:01.242Z,19.27
2022-11-28T17:54:27.670Z,17.08
2022-11-28T17:56:54.116Z,17.00
2022-11-28T17:59:21.650Z,19.20
2022-11-28T18:01:48.213Z,17.25
2022-11-28T18:04:15.385Z,16.27
2022-11-28T18:06:45.616Z,16.15
2022-11-28T18:09:12.483Z,16.10
2022-11-28T18:14:26.861Z,18.48
2022-11-28T18:16:54.367Z,16.70
2022-11-28T18:19:20.800Z,15.88
2022-11-28T18:21:47.192Z,15.65
2022-11-28T18:24:14.990Z,15.57
2022-11-28T18:26:41.649Z,14.35
2022-11-28T18:29:08.776Z,18.05
2022-11-28T18:31:35.384Z,18.98
2022-11-28T18:34:03.353Z,13.98
2022-11-28T18:36:31.741Z,19.05
2022-11-28T18:38:59.470Z,15.27
2022-11-28T18:41:26.044Z,17.55
2022-11-28T18:43:55.277Z,19.27
2022-11-28T18:46:21.704Z,17.88
2022-11-28T18:48:48.608Z,19.77
2022-11-28T18:51:21.899Z,17.80
2022-11-28T18:53:50.164Z,17.33
2022-11-28T18:56:16.706Z,19.55
2022-11-28T18:58:44.475Z,16.67
2022-11-28T19:01:19.729Z,22.05
2022-11-28T19:03:50.037Z,16.00
2022-11-28T19:06:16.586Z,16.08
2022-11-28T19:08:42.989Z,18.05
2022-11-28T19:11:10.863Z,17.88
2022-11-28T19:13:37.468Z,16.83
2022-11-28T19:16:07.968Z,17.38
2022-11-28T19:18:35.443Z,16.70
2022-11-28T19:21:05.266Z,16.63
2022-11-28T19:23:31.771Z,17.20
2022-11-28T19:26:01.811Z,15.15
2022-11-28T19:28:28.254Z,18.50
2022-11-28T19:31:08.335Z,16.92
2022-11-28T19:33:34.992Z,16.35
2022-11-28T19:36:08.433Z,16.10
2022-11-28T19:38:35.355Z,16.98
2022-11-28T19:41:15.425Z,19.05
2022-11-28T19:43:41.907Z,16.05
2022-11-28T19:46:09.244Z,16.45
2022-11-28T19:48:36.333Z,16.77
2022-11-28T19:51:02.902Z,14.43
2022-11-28T19:53:30.608Z,17.27
2022-11-28T19:55:57.067Z,16.15
2022-11-28T19:58:23.522Z,13.30
2022-11-28T20:00:49.946Z,17.80
2022-11-28T20:03:16.380Z,15.85
2022-11-28T20:05:42.791Z,15.70
2022-11-28T20:08:09.270Z,16.85
2022-11-28T20:10:36.861Z,15.60
2022-11-28T20:13:03.382Z,17.77
2022-11-28T20:15:29.805Z,17.65
2022-11-28T20:17:56.305Z,15.27
2022-11-28T20:20:22.872Z,17.13
2022-11-28T20:22:49.258Z,16.75
2022-11-28T20:25:20.695Z,15.93
2022-11-28T20:27:53.012Z,13.82
2022-11-28T20:30:20.860Z,17.83
2022-11-28T20:32:48.385Z,17.40
2022-11-28T20:35:14.910Z,17.80
2022-11-28T20:37:41.388Z,17.77
2022-11-28T20:40:08.749Z,18.83
2022-11-28T20:42:39.619Z,19.63
2022-11-28T20:45:07.149Z,16.38
2022-11-28T20:47:34.426Z,16.27
2022-11-28T20:50:00.819Z,18.13
2022-11-28T20:52:27.243Z,17.65
2022-11-28T20:54:53.676Z,16.35
2022-11-28T20:57:21.634Z,17.58
2022-11-28T20:59:48.859Z,15.65
2022-11-28T21:02:15.390Z,17.25
2022-11-28T21:04:41.880Z,17.15
2022-11-28T21:07:08.465Z,20.40
2022-11-28T21:09:34.884Z,16.23
2022-11-28T21:12:01.281Z,18.00
2022-11-28T21:14:28.204Z,18.40
2022-11-28T21:16:56.734Z,15.50
2022-11-28T21:19:23.246Z,16.25
2022-11-28T21:21:49.709Z,17.98
2022-11-28T21:24:16.128Z,19.17
2022-11-28T21:26:46.680Z,18.13
2022-11-28T21:29:16.019Z,16.55
2022-11-28T21:31:43.881Z,16.83
2022-11-28T21:34:11.794Z,16.98
2022-11-28T21:36:39.298Z,17.67
2022-11-28T21:39:05.777Z,16.95
2022-11-28T21:41:32.476Z,18.88
2022-11-28T21:43:59.398Z,17.25
2022-11-28T21:46:26.083Z,16.73
2022-11-28T21:48:52.612Z,17.10
2022-11-28T21:51:20.759Z,17.60
2022-11-28T21:53:47.265Z,17.85
2022-11-28T21:56:13.658Z,20.25
2022-11-28T21:58:40.091Z,20.02
2022-11-28T22:01:08.584Z,15.85
2022-11-28T22:03:35.588Z,17.60
2022-11-28T22:06:14.382Z,15.48
2022-11-28T22:08:40.831Z,16.70
2022-11-28T22:11:07.278Z,18.55
2022-11-28T22:13:33.892Z,15.35
2022-11-28T22:16:00.458Z,18.52
2022-11-28T22:18:29.043Z,17.67
2022-11-28T22:21:02.478Z,16.90
2022-11-28T22:23:29.110Z,16.48
2022-11-28T22:25:55.554Z,18.77
2022-11-28T22:28:21.961Z,17.00
2022-11-28T22:30:48.373Z,16.00
2022-11-28T22:33:14.857Z,16.08
2022-11-28T22:35:41.416Z,18.08
2022-11-28T22:38:07.943Z,17.02
2022-11-28T22:40:34.381Z,18.15
2022-11-28T22:43:00.787Z,18.65
2022-11-28T22:45:27.274Z,17.40
2022-11-28T22:47:53.755Z,18.33
2022-11-28T22:50:20.154Z,16.63
2022-11-28T22:52:46.575Z,20.63
2022-11-28T22:55:12.997Z,16.27
2022-11-28T22:57:39.495Z,17.75
2022-11-28T23:00:06.985Z,19.25
2022-11-28T23:02:33.489Z,18.40
2022-11-28T23:04:59.987Z,17.92
2022-11-28T23:07:26.478Z,17.15
2022-11-28T23:09:52.952Z,17.52
2022-11-28T23:12:19.333Z,19.40
2022-11-28T23:14:46.023Z,18.38
2022-11-28T23:17:12.541Z,17.98
2022-11-28T23:19:39.009Z,16.90
2022-11-28T23:22:05.417Z,19.13
2022-11-28T23:24:31.831Z,21.77
2022-11-28T23:26:58.210Z,18.30
2022-11-28T23:29:24.614Z,17.63
2022-11-28T23:31:51.161Z,21.40
2022-11-28T23:34:17.585Z,22.92
2022-11-28T23:36:45.579Z,22.13
2022-11-28T23:39:16.682Z,24.58
2022-11-28T23:41:43.165Z,18.85
2022-11-28T23:44:10.876Z,18.85
2022-11-28T23:46:37.386Z,19.05
2022-11-28T23:49:05.558Z,20.70
2022-11-28T23:51:32.179Z,21.30
2022-11-28T23:53:58.591Z,19.95
2022-11-28T23:56:26.780Z,23.25
2022-11-28T23:58:53.580Z,19.83
